Cuchilla, Argentina
Current Conditions -  °F | °C
As of 5:00 AM on Sunday 26 Oct 2014 (Local Time) from SAAR Reporting Station
Clear Clear  
Wind Chill: 70°   Ceiling: Unl
Heat Index: 70°   Visibility: 6mi
Dew Point: 64°   Wind: 6mph
Humidity: 83%   Direction: 50°NE
Pressure: 29.8"   Gusts: NA
Location:  33.15°S, 59.28°W
Report Text: SAAR 260800Z 05005KT CAVOK 21/18 Q1009
Loading
Personal Weather Stations






























Interactive Weather Map
Tropical Storm Tracking
New forecast layout! Learn more

10-Day Weather Forecast

Advertisements
Track Severe Weather on mobile